Time;durP1;ratioP1;P1;durP2;ratioP2;P2;SDS_P1;SDS_P2;PMS_P1;PMS_P2;Temp;Humidity;BMP_temperature;BMP_pressure;BME280_temperature;BME280_humidity;BME280_pressure;Samples;Min_cycle;Max_cycle;Signal;HPM_P1;HPM_P2
2021/09/21 00:00:39;;;;;;;;;;;11.00;1.00;;;;;;5028921;28;20070;-68
2021/09/21 00:03:04;;;;;;;;;;;11.00;1.00;;;;;;5027108;28;19910;-68
2021/09/21 00:05:30;;;;;;;;;;;11.00;1.00;;;;;;5028641;28;19913;-68
2021/09/21 00:07:55;;;;;;;;;;;11.10;1.00;;;;;;5028097;28;19913;-67
2021/09/21 00:10:21;;;;;;;;;;;11.20;1.00;;;;;;5027287;28;19999;-67
2021/09/21 00:12:46;;;;;;;;;;;11.30;1.00;;;;;;5029178;28;19994;-67
2021/09/21 00:15:13;;;;;;;;;;;11.40;1.00;;;;;;5052339;28;19917;-67
2021/09/21 00:17:39;;;;;;;;;;;11.60;1.00;;;;;;5051992;28;19987;-67
2021/09/21 00:20:04;;;;;;;;;;;11.60;1.00;;;;;;5052040;28;20338;-67
2021/09/21 00:22:30;;;;;;;;;;;11.70;1.00;;;;;;5051058;28;19913;-67
2021/09/21 00:24:55;;;;;;;;;;;11.80;1.00;;;;;;5051114;28;19909;-67
2021/09/21 00:27:21;;;;;;;;;;;11.80;1.00;;;;;;5032319;28;20278;-67
2021/09/21 00:29:47;;;;;;;;;;;11.90;1.00;;;;;;5032018;28;19913;-67
2021/09/21 00:32:19;;;;;;;;;;;11.90;1.00;;;;;;5037180;28;19909;-67
2021/09/21 00:34:45;;;;;;;;;;;12.00;1.00;;;;;;5052124;28;19913;-67
2021/09/21 00:37:12;;;;;;;;;;;12.00;1.00;;;;;;5051832;28;20273;-67
2021/09/21 00:39:38;;;;;;;;;;;12.00;1.00;;;;;;5051096;28;20539;-67
2021/09/21 00:42:04;;;;;;;;;;;12.10;1.00;;;;;;5051589;28;20016;-67
2021/09/21 00:44:30;;;;;;;;;;;12.10;1.00;;;;;;5051314;28;19919;-66
2021/09/21 00:46:55;;;;;;;;;;;12.10;1.00;;;;;;5051539;28;20282;-66
2021/09/21 00:49:21;;;;;;;;;;;12.20;1.00;;;;;;5051492;28;19909;-67
2021/09/21 00:51:47;;;;;;;;;;;12.20;1.00;;;;;;5051341;28;19919;-67
2021/09/21 00:54:12;;;;;;;;;;;12.20;1.00;;;;;;5050036;28;20461;-67
2021/09/21 00:56:38;;;;;;;;;;;12.30;1.00;;;;;;5051287;28;19975;-67
2021/09/21 00:59:04;;;;;;;;;;;12.30;1.00;;;;;;5051308;28;19964;-67
2021/09/21 01:01:29;;;;;;;;;;;12.30;1.00;;;;;;5047838;28;19980;-67
2021/09/21 01:03:55;;;;;;;;;;;12.40;1.00;;;;;;5049712;28;20356;-67
2021/09/21 01:06:20;;;;;;;;;;;12.40;1.00;;;;;;5051202;28;19908;-67
2021/09/21 01:08:46;;;;;;;;;;;12.40;1.00;;;;;;5049957;28;19917;-67
2021/09/21 01:11:12;;;;;;;;;;;12.40;1.00;;;;;;5051709;28;20331;-66
2021/09/21 01:13:38;;;;;;;;;;;12.40;1.00;;;;;;5050192;28;19917;-67
2021/09/21 01:16:03;;;;;;;;;;;12.50;1.00;;;;;;5051255;28;19916;-67
2021/09/21 01:18:29;;;;;;;;;;;12.50;1.00;;;;;;5050543;28;19935;-67
2021/09/21 01:21:05;;;;;;;;;;;12.50;99.90;;;;;;5051513;28;19909;-67
2021/09/21 01:23:43;;;;;;;;;;;12.50;99.90;;;;;;5048274;28;20372;-67
2021/09/21 01:26:08;;;;;;;;;;;12.50;99.90;;;;;;5020744;28;20370;-67
2021/09/21 01:28:34;;;;;;;;;;;12.50;99.90;;;;;;5030644;28;19963;-67
2021/09/21 01:30:59;;;;;;;;;;;12.60;99.90;;;;;;5031195;28;19913;-67
2021/09/21 01:33:25;;;;;;;;;;;12.60;99.90;;;;;;5045713;28;20230;-67
2021/09/21 01:35:50;;;;;;;;;;;12.60;99.90;;;;;;5051088;28;19909;-67
2021/09/21 01:38:16;;;;;;;;;;;12.60;99.90;;;;;;5050162;28;20265;-67
2021/09/21 01:40:42;;;;;;;;;;;12.60;99.90;;;;;;5049962;28;19908;-67
2021/09/21 01:43:07;;;;;;;;;;;12.60;99.90;;;;;;5049911;28;20339;-67
2021/09/21 01:45:33;;;;;;;;;;;12.60;99.90;;;;;;5050850;28;19967;-67
2021/09/21 01:47:59;;;;;;;;;;;12.50;99.90;;;;;;5050591;28;19909;-67
2021/09/21 01:51:08;;;;;;;;;;;12.50;99.90;;;;;;5050898;28;20351;-67
2021/09/21 01:58:46;;;;;;;;;;;12.40;1.00;;;;;;5038833;28;19948;-67
2021/09/21 02:01:12;;;;;;;;;;;12.40;1.00;;;;;;5050551;28;19920;-67
2021/09/21 02:03:38;;;;;;;;;;;12.40;1.00;;;;;;5048605;28;19920;-67
2021/09/21 02:06:05;;;;;;;;;;;12.40;1.00;;;;;;5050716;28;19909;-67
2021/09/21 02:08:30;;;;;;;;;;;12.40;1.00;;;;;;5049107;28;19928;-67
2021/09/21 02:10:56;;;;;;;;;;;12.40;1.00;;;;;;5050181;28;19935;-67
2021/09/21 02:13:21;;;;;;;;;;;12.40;1.00;;;;;;5048806;28;20071;-67
2021/09/21 02:15:47;;;;;;;;;;;12.40;1.00;;;;;;5050326;28;20282;-67
2021/09/21 02:18:12;;;;;;;;;;;12.50;1.00;;;;;;5049478;28;20100;-67
2021/09/21 02:20:38;;;;;;;;;;;12.50;1.00;;;;;;5050181;28;20082;-67
2021/09/21 02:23:03;;;;;;;;;;;12.60;99.90;;;;;;5048350;28;19923;-67
2021/09/21 02:25:29;;;;;;;;;;;12.60;99.90;;;;;;5044921;28;20335;-67
2021/09/21 02:27:54;;;;;;;;;;;12.60;99.90;;;;;;5049522;28;19917;-67
2021/09/21 02:30:20;;;;;;;;;;;12.50;99.90;;;;;;5031813;28;19917;-67
2021/09/21 02:32:46;;;;;;;;;;;12.50;99.90;;;;;;5039593;28;19909;-67
2021/09/21 02:35:11;;;;;;;;;;;12.50;99.90;;;;;;5049193;28;20364;-67
2021/09/21 02:37:37;;;;;;;;;;;12.50;99.90;;;;;;5049045;28;19916;-67
2021/09/21 02:40:03;;;;;;;;;;;12.50;99.90;;;;;;5049180;28;19983;-67
2021/09/21 02:42:29;;;;;;;;;;;12.50;99.90;;;;;;5048743;28;19933;-67
2021/09/21 02:44:54;;;;;;;;;;;12.50;1.00;;;;;;5049266;28;20027;-67
2021/09/21 02:47:20;;;;;;;;;;;12.40;1.00;;;;;;5048889;28;20018;-67
2021/09/21 02:49:45;;;;;;;;;;;12.40;1.00;;;;;;5049441;28;20003;-67
2021/09/21 02:52:11;;;;;;;;;;;12.50;99.90;;;;;;5048454;28;20023;-67
2021/09/21 02:54:36;;;;;;;;;;;12.50;99.90;;;;;;5048433;28;19923;-67
2021/09/21 02:57:02;;;;;;;;;;;12.50;99.90;;;;;;5049253;28;19966;-67
2021/09/21 02:59:27;;;;;;;;;;;12.50;99.90;;;;;;5048792;28;19986;-67
2021/09/21 03:01:53;;;;;;;;;;;12.50;99.90;;;;;;5048679;28;19991;-67
2021/09/21 03:04:30;;;;;;;;;;;12.50;99.90;;;;;;5048994;28;19963;-68
2021/09/21 03:07:05;;;;;;;;;;;12.50;99.90;;;;;;5049279;28;19912;-67
2021/09/21 03:12:12;;;;;;;;;;;12.60;99.90;;;;;;5048610;28;19913;-66
2021/09/21 03:17:26;;;;;;;;;;;12.50;99.90;;;;;;5048827;28;19962;-67
2021/09/21 03:19:55;;;;;;;;;;;12.50;99.90;;;;;;5049362;28;20025;-68
2021/09/21 03:22:22;;;;;;;;;;;12.50;99.90;;;;;;5029951;28;20694;-67
2021/09/21 03:24:48;;;;;;;;;;;12.50;99.90;;;;;;5047934;28;19966;-69
2021/09/21 03:27:13;;;;;;;;;;;12.50;99.90;;;;;;5030537;28;20623;-69
2021/09/21 03:29:39;;;;;;;;;;;12.50;99.90;;;;;;5028557;28;19913;-65
2021/09/21 03:32:04;;;;;;;;;;;12.50;99.90;;;;;;5033151;28;20333;-68
2021/09/21 03:34:32;;;;;;;;;;;12.50;99.90;;;;;;5048654;28;20015;-66
2021/09/21 03:36:58;;;;;;;;;;;12.50;99.90;;;;;;5048922;28;20365;-66
2021/09/21 03:39:23;;;;;;;;;;;12.50;99.90;;;;;;5047172;28;19919;-67
2021/09/21 03:41:49;;;;;;;;;;;12.60;99.90;;;;;;5048443;28;19938;-64
2021/09/21 03:44:14;;;;;;;;;;;12.50;99.90;;;;;;5048409;28;19909;-67
2021/09/21 03:46:40;;;;;;;;;;;12.50;99.90;;;;;;5048554;28;20288;-67
2021/09/21 03:49:06;;;;;;;;;;;12.50;99.90;;;;;;5047566;28;19909;-67
2021/09/21 03:51:31;;;;;;;;;;;12.50;99.90;;;;;;5048506;28;20011;-67
2021/09/21 03:53:57;;;;;;;;;;;12.40;99.90;;;;;;5046031;28;19956;-67
2021/09/21 03:56:22;;;;;;;;;;;12.40;99.90;;;;;;5048949;28;19920;-68
2021/09/21 03:58:47;;;;;;;;;;;12.40;99.90;;;;;;5048482;28;20036;-67
2021/09/21 04:01:13;;;;;;;;;;;12.40;99.90;;;;;;5046892;28;19917;-67
2021/09/21 04:03:39;;;;;;;;;;;12.40;99.90;;;;;;5044529;28;19917;-68
2021/09/21 04:06:04;;;;;;;;;;;12.40;99.90;;;;;;5048284;28;19919;-68
2021/09/21 04:08:30;;;;;;;;;;;12.40;99.90;;;;;;5046890;28;19909;-67
2021/09/21 04:10:55;;;;;;;;;;;12.40;99.90;;;;;;5048619;28;19909;-67
2021/09/21 04:13:21;;;;;;;;;;;12.40;99.90;;;;;;5047461;28;19909;-69
2021/09/21 04:15:46;;;;;;;;;;;12.40;99.90;;;;;;5048553;28;19921;-68
2021/09/21 04:18:12;;;;;;;;;;;12.40;99.90;;;;;;5047915;28;20023;-68
2021/09/21 04:20:37;;;;;;;;;;;12.40;99.90;;;;;;5048257;28;19915;-69
2021/09/21 04:23:03;;;;;;;;;;;12.40;99.90;;;;;;5047089;28;19916;-68
2021/09/21 04:25:30;;;;;;;;;;;12.40;99.90;;;;;;5043632;28;19917;-69
2021/09/21 04:27:56;;;;;;;;;;;12.40;99.90;;;;;;5028043;28;20001;-67
2021/09/21 04:30:22;;;;;;;;;;;12.40;99.90;;;;;;5027911;28;20402;-66
2021/09/21 04:32:48;;;;;;;;;;;12.40;99.90;;;;;;5034191;28;19913;-67
2021/09/21 04:35:14;;;;;;;;;;;12.30;99.90;;;;;;5045412;28;19920;-69
2021/09/21 04:37:39;;;;;;;;;;;12.40;99.90;;;;;;5047374;28;20217;-68
2021/09/21 04:40:05;;;;;;;;;;;12.40;99.90;;;;;;5047271;28;20015;-69
2021/09/21 04:42:31;;;;;;;;;;;12.40;99.90;;;;;;5032307;28;19956;-68
2021/09/21 04:44:56;;;;;;;;;;;12.30;99.90;;;;;;5027068;28;19960;-65
2021/09/21 04:47:22;;;;;;;;;;;12.30;99.90;;;;;;5027390;28;19913;-66
2021/09/21 04:49:47;;;;;;;;;;;12.30;99.90;;;;;;5027449;28;19971;-69
2021/09/21 04:52:14;;;;;;;;;;;12.30;99.90;;;;;;5026414;28;20024;-69
2021/09/21 04:54:40;;;;;;;;;;;12.30;99.90;;;;;;5026536;28;19915;-68
2021/09/21 04:57:06;;;;;;;;;;;12.30;99.90;;;;;;5027724;28;20303;-70
2021/09/21 04:59:32;;;;;;;;;;;12.30;99.90;;;;;;5029693;28;19920;-69
2021/09/21 05:01:57;;;;;;;;;;;12.40;99.90;;;;;;5029584;28;19956;-71
2021/09/21 05:04:23;;;;;;;;;;;12.40;99.90;;;;;;5029837;28;19997;-67
2021/09/21 05:06:48;;;;;;;;;;;12.40;99.90;;;;;;5031401;28;19952;-65
2021/09/21 05:09:15;;;;;;;;;;;12.40;99.90;;;;;;5029974;28;19917;-69
2021/09/21 05:11:41;;;;;;;;;;;12.40;99.90;;;;;;5029107;28;19913;-66
2021/09/21 05:14:07;;;;;;;;;;;12.40;99.90;;;;;;5009173;28;20732;-67
2021/09/21 05:16:33;;;;;;;;;;;12.40;99.90;;;;;;5028844;28;19917;-67
2021/09/21 05:18:59;;;;;;;;;;;12.30;99.90;;;;;;5027103;28;20259;-65
2021/09/21 05:21:25;;;;;;;;;;;12.30;1.00;;;;;;5010461;28;19913;-66
2021/09/21 05:23:50;;;;;;;;;;;12.30;1.00;;;;;;5027647;28;20389;-67
2021/09/21 05:26:17;;;;;;;;;;;12.40;99.90;;;;;;5034268;28;19939;-68
2021/09/21 05:28:43;;;;;;;;;;;12.40;99.90;;;;;;5024745;28;20016;-68
2021/09/21 05:31:09;;;;;;;;;;;12.40;99.90;;;;;;5019665;28;19913;-68
2021/09/21 05:33:34;;;;;;;;;;;12.40;99.90;;;;;;5015671;28;20100;-67
2021/09/21 05:36:00;;;;;;;;;;;12.50;99.90;;;;;;5018186;28;19944;-67
2021/09/21 05:38:26;;;;;;;;;;;12.50;99.90;;;;;;4999732;28;19920;-69
2021/09/21 05:40:52;;;;;;;;;;;12.50;99.90;;;;;;5016990;28;19932;-68
2021/09/21 05:43:18;;;;;;;;;;;12.50;99.90;;;;;;5017448;28;20374;-68
2021/09/21 05:45:43;;;;;;;;;;;12.50;99.90;;;;;;5016075;28;19921;-68
2021/09/21 05:48:09;;;;;;;;;;;12.50;99.90;;;;;;5017597;28;20336;-67
2021/09/21 05:50:34;;;;;;;;;;;12.50;57.80;;;;;;5017080;28;19909;-68
2021/09/21 05:53:00;;;;;;;;;;;12.50;1.00;;;;;;5016645;28;19916;-68
2021/09/21 05:55:27;;;;;;;;;;;12.40;1.00;;;;;;5017536;28;19913;-68
2021/09/21 05:57:53;;;;;;;;;;;12.50;1.00;;;;;;5001528;28;20017;-68
2021/09/21 06:00:18;;;;;;;;;;;12.40;1.00;;;;;;5016526;28;19923;-69
2021/09/21 06:02:44;;;;;;;;;;;12.40;1.00;;;;;;5018468;28;19931;-69
2021/09/21 06:05:09;;;;;;;;;;;12.40;1.00;;;;;;5021291;28;19963;-68
2021/09/21 06:07:42;;;;;;;;;;;12.40;1.00;;;;;;5016774;28;19939;-68
2021/09/21 06:10:07;;;;;;;;;;;12.40;1.00;;;;;;5015981;28;20007;-69
2021/09/21 06:12:34;;;;;;;;;;;12.40;1.00;;;;;;5017245;28;20000;-68
2021/09/21 06:14:59;;;;;;;;;;;12.40;1.00;;;;;;5020969;28;19921;-68
2021/09/21 06:17:25;;;;;;;;;;;12.40;1.00;;;;;;5017325;28;19918;-68
2021/09/21 06:19:50;;;;;;;;;;;12.40;1.00;;;;;;5017854;28;20382;-69
2021/09/21 06:22:16;;;;;;;;;;;12.50;1.00;;;;;;5016170;28;19964;-67
2021/09/21 06:24:41;;;;;;;;;;;12.50;1.00;;;;;;5020233;28;19975;-68
2021/09/21 06:27:07;;;;;;;;;;;12.40;1.00;;;;;;5020331;28;19959;-67
2021/09/21 06:29:32;;;;;;;;;;;12.40;1.00;;;;;;5017429;28;20435;-68
2021/09/21 06:31:58;;;;;;;;;;;12.50;1.00;;;;;;5011019;28;19913;-68
2021/09/21 06:34:24;;;;;;;;;;;12.60;1.00;;;;;;5008764;28;20351;-67
2021/09/21 06:36:53;;;;;;;;;;;12.60;1.00;;;;;;5008114;28;20359;-67
2021/09/21 06:39:19;;;;;;;;;;;12.60;1.00;;;;;;5008385;28;20012;-67
2021/09/21 06:41:45;;;;;;;;;;;12.70;1.00;;;;;;5008975;28;20001;-67
2021/09/21 06:44:11;;;;;;;;;;;12.80;1.00;;;;;;5009541;28;19910;-67
2021/09/21 06:46:36;;;;;;;;;;;12.90;1.00;;;;;;5009960;28;19920;-67
2021/09/21 06:49:02;;;;;;;;;;;12.90;1.00;;;;;;5009391;28;19987;-67
2021/09/21 06:51:27;;;;;;;;;;;12.90;1.00;;;;;;5009794;28;19979;-67
2021/09/21 06:53:53;;;;;;;;;;;13.00;99.90;;;;;;4990238;28;19917;-68
2021/09/21 06:56:18;;;;;;;;;;;13.00;99.90;;;;;;5009964;28;19952;-68
2021/09/21 06:58:44;;;;;;;;;;;13.00;1.00;;;;;;5009113;28;19917;-67
2021/09/21 07:01:09;;;;;;;;;;;13.10;99.90;;;;;;5011538;28;20541;-67
2021/09/21 07:03:35;;;;;;;;;;;13.20;99.90;;;;;;5045296;28;19916;-67
2021/09/21 07:06:02;;;;;;;;;;;13.40;1.00;;;;;;5049525;28;19909;-68
2021/09/21 07:08:28;;;;;;;;;;;13.60;99.90;;;;;;5047814;28;19913;-68
2021/09/21 07:10:54;;;;;;;;;;;13.60;1.00;;;;;;5049472;28;19913;-68
2021/09/21 07:13:19;;;;;;;;;;;13.80;1.00;;;;;;5048195;28;19931;-68
2021/09/21 07:15:45;;;;;;;;;;;13.90;1.00;;;;;;5049593;28;19912;-68
2021/09/21 07:18:10;;;;;;;;;;;14.10;1.00;;;;;;5048640;28;20043;-69
2021/09/21 07:20:35;;;;;;;;;;;14.40;12.30;;;;;;5048738;28;19974;-67
2021/09/21 07:23:01;;;;;;;;;;;14.60;1.00;;;;;;5047990;28;20215;-68
2021/09/21 07:25:27;;;;;;;;;;;14.70;1.00;;;;;;5044698;28;19913;-68
2021/09/21 07:27:53;;;;;;;;;;;14.80;1.00;;;;;;5029060;28;19920;-68
2021/09/21 07:30:19;;;;;;;;;;;15.00;99.90;;;;;;5028935;28;19913;-68
2021/09/21 07:32:44;;;;;;;;;;;15.30;99.90;;;;;;5027987;28;19909;-67
2021/09/21 07:35:10;;;;;;;;;;;15.50;99.90;;;;;;5029279;28;19967;-69
2021/09/21 07:37:36;;;;;;;;;;;15.50;86.70;;;;;;5028864;28;20052;-69
2021/09/21 07:40:02;;;;;;;;;;;15.60;1.00;;;;;;5027978;28;20541;-68
2021/09/21 07:42:27;;;;;;;;;;;15.70;1.00;;;;;;5028092;28;20054;-69
2021/09/21 07:44:54;;;;;;;;;;;15.90;1.00;;;;;;5028420;28;20015;-69
2021/09/21 07:47:20;;;;;;;;;;;15.90;1.00;;;;;;5028463;28;19968;-69
2021/09/21 07:49:46;;;;;;;;;;;15.80;1.00;;;;;;5028785;28;19914;-69
2021/09/21 07:52:13;;;;;;;;;;;15.40;1.00;;;;;;5027773;28;19909;-68
2021/09/21 07:54:39;;;;;;;;;;;15.20;1.00;;;;;;5027847;28;19913;-68
2021/09/21 07:57:05;;;;;;;;;;;15.40;1.00;;;;;;5028088;28;20398;-68
2021/09/21 07:59:30;;;;;;;;;;;15.90;1.00;;;;;;5028213;28;20035;-69
2021/09/21 08:01:56;;;;;;;;;;;16.20;1.00;;;;;;5027729;28;19914;-69
2021/09/21 08:04:21;;;;;;;;;;;16.60;1.00;;;;;;5028158;28;19917;-68
2021/09/21 08:06:47;;;;;;;;;;;17.10;1.00;;;;;;5047544;28;20344;-68
2021/09/21 08:09:12;;;;;;;;;;;17.70;99.90;;;;;;5028539;28;19909;-69
2021/09/21 08:11:38;;;;;;;;;;;19.10;99.90;;;;;;5048466;28;19920;-67
2021/09/21 08:14:03;;;;;;;;;;;19.40;99.90;;;;;;5047081;28;20524;-66
2021/09/21 08:16:30;;;;;;;;;;;18.90;99.90;;;;;;5048539;28;19909;-66
2021/09/21 08:18:56;;;;;;;;;;;18.30;99.90;;;;;;5047401;28;20249;-66
2021/09/21 08:21:22;;;;;;;;;;;17.70;99.90;;;;;;5048625;28;19909;-67
2021/09/21 08:23:47;;;;;;;;;;;17.40;99.90;;;;;;5045965;28;19913;-67
2021/09/21 08:26:13;;;;;;;;;;;17.70;99.90;;;;;;5044592;28;20393;-67
2021/09/21 08:28:38;;;;;;;;;;;18.20;99.90;;;;;;5043642;28;19920;-68
2021/09/21 08:31:04;;;;;;;;;;;18.40;99.90;;;;;;5028397;28;19910;-67
2021/09/21 08:33:30;;;;;;;;;;;19.20;99.90;;;;;;5027009;28;19937;-67
2021/09/21 08:35:55;;;;;;;;;;;20.40;99.90;;;;;;5032355;28;19916;-66
2021/09/21 08:38:21;;;;;;;;;;;21.10;99.90;;;;;;5030771;28;20277;-66
2021/09/21 08:40:46;;;;;;;;;;;21.40;99.90;;;;;;5031761;28;19913;-66
2021/09/21 08:43:12;;;;;;;;;;;23.20;99.90;;;;;;5030216;28;19916;-67
2021/09/21 08:45:37;;;;;;;;;;;23.10;99.90;;;;;;5031965;28;20059;-66
2021/09/21 08:48:03;;;;;;;;;;;22.60;99.90;;;;;;5030989;28;19989;-67
2021/09/21 08:50:29;;;;;;;;;;;22.80;99.90;;;;;;5031808;28;19916;-67
2021/09/21 08:52:54;;;;;;;;;;;22.60;99.90;;;;;;5030739;28;19936;-67
2021/09/21 08:55:20;;;;;;;;;;;22.30;99.90;;;;;;5030200;28;19925;-68
2021/09/21 08:57:45;;;;;;;;;;;21.60;99.90;;;;;;5031390;28;19944;-68
2021/09/21 09:00:13;;;;;;;;;;;20.90;99.90;;;;;;5031834;28;20011;-67
2021/09/21 09:02:38;;;;;;;;;;;20.30;99.90;;;;;;5030724;28;19913;-68
2021/09/21 09:05:07;;;;;;;;;;;19.30;99.90;;;;;;5055397;22;19929;-65
2021/09/21 09:07:47;;;;;;;;;;;19.00;99.90;;;;;;5068925;28;19958;-65
2021/09/21 09:10:12;;;;;;;;;;;18.70;99.90;;;;;;5070213;28;19912;-65
2021/09/21 09:12:38;;;;;;;;;;;18.50;99.90;;;;;;5071522;28;19915;-65
2021/09/21 09:15:10;;;;;;;;;;;18.30;99.90;;;;;;5051724;28;19909;-65
2021/09/21 09:17:37;;;;;;;;;;;18.10;99.90;;;;;;5051351;28;20264;-66
2021/09/21 09:20:03;;;;;;;;;;;18.10;99.90;;;;;;5051095;28;19923;-66
2021/09/21 09:22:29;;;;;;;;;;;18.00;99.90;;;;;;5050930;28;20344;-65
2021/09/21 09:25:00;;;;;;;;;;;18.10;99.90;;;;;;5060630;28;19908;-66
2021/09/21 09:27:38;;;;;;;;;;;18.20;99.90;;;;;;5051760;28;19944;-66
2021/09/21 09:30:08;;;;;;;;;;;18.00;99.90;;;;;;5067226;28;19931;-66
2021/09/21 09:32:50;;;;;;;;;;;18.40;99.90;;;;;;5071195;28;19933;-66
2021/09/21 09:35:23;;;;;;;;;;;19.10;99.90;;;;;;5070872;28;19966;-66
2021/09/21 09:37:48;;;;;;;;;;;21.10;99.90;;;;;;5071053;28;20361;-65
2021/09/21 09:40:14;;;;;;;;;;;24.00;99.90;;;;;;5070238;28;19986;-66
2021/09/21 09:42:41;;;;;;;;;;;24.70;99.90;;;;;;5070720;28;19954;-65
2021/09/21 09:45:07;;;;;;;;;;;24.50;99.90;;;;;;5070837;28;19909;-66
2021/09/21 09:47:42;;;;;;;;;;;27.60;99.90;;;;;;5086350;28;20360;-66
2021/09/21 09:50:11;;;;;;;;;;;27.10;99.90;;;;;;5070532;28;19924;-64
2021/09/21 09:52:37;;;;;;;;;;;26.00;99.90;;;;;;5070798;28;19924;-67
2021/09/21 09:55:03;;;;;;;;;;;26.00;99.90;;;;;;5069566;28;20414;-65
2021/09/21 09:57:29;;;;;;;;;;;25.80;99.90;;;;;;5070980;28;19909;-65
2021/09/21 09:59:55;;;;;;;;;;;25.70;99.90;;;;;;5070291;28;20353;-65
2021/09/21 10:02:21;;;;;;;;;;;25.40;99.90;;;;;;5070164;28;19919;-66
2021/09/21 10:04:47;;;;;;;;;;;25.10;99.90;;;;;;5067485;28;19920;-65
2021/09/21 10:07:13;;;;;;;;;;;25.10;99.90;;;;;;5051374;28;19913;-66
2021/09/21 10:09:38;;;;;;;;;;;25.20;99.90;;;;;;5049235;28;19913;-65
2021/09/21 10:12:04;;;;;;;;;;;24.40;99.90;;;;;;5050225;28;19912;-65
2021/09/21 10:14:30;;;;;;;;;;;24.30;99.90;;;;;;5064879;28;19998;-66
2021/09/21 10:16:58;;;;;;;;;;;25.40;99.90;;;;;;5070679;28;19967;-66
2021/09/21 10:19:24;;;;;;;;;;;25.50;99.90;;;;;;5069690;28;20315;-65
2021/09/21 10:21:51;;;;;;;;;;;26.10;99.90;;;;;;5069613;28;19919;-66
2021/09/21 10:24:17;;;;;;;;;;;27.60;99.90;;;;;;5068926;28;19912;-65
2021/09/21 10:26:44;;;;;;;;;;;27.60;99.90;;;;;;5070365;28;19909;-65
2021/09/21 10:29:10;;;;;;;;;;;28.00;99.90;;;;;;5070015;28;20027;-65
2021/09/21 10:31:38;;;;;;;;;;;27.80;99.90;;;;;;5070571;28;19995;-66
2021/09/21 10:34:14;;;;;;;;;;;28.80;99.90;;;;;;5068854;28;19912;-66
2021/09/21 10:36:50;;;;;;;;;;;29.80;99.90;;;;;;5085883;28;19920;-66
2021/09/21 10:39:16;;;;;;;;;;;30.40;99.90;;;;;;5068805;28;20029;-66
2021/09/21 10:42:07;;;;;;;;;;;30.10;99.90;;;;;;5070248;28;19909;-67
2021/09/21 10:44:33;;;;;;;;;;;29.00;99.90;;;;;;5066548;28;19949;-65
2021/09/21 10:47:03;;;;;;;;;;;28.70;99.90;;;;;;5069764;28;19916;-66
2021/09/21 10:49:36;;;;;;;;;;;28.50;99.90;;;;;;5069197;28;19919;-65
2021/09/21 10:52:13;;;;;;;;;;;28.80;99.90;;;;;;5069509;28;19909;-65
2021/09/21 10:54:50;;;;;;;;;;;28.80;99.90;;;;;;5068309;28;19912;-64
2021/09/21 10:57:38;;;;;;;;;;;28.30;97.70;;;;;;5069517;28;19912;-66
2021/09/21 11:00:06;;;;;;;;;;;26.80;95.20;;;;;;5069876;28;20334;-64
2021/09/21 11:02:35;;;;;;;;;;;25.80;94.30;;;;;;5069610;28;19912;-66
2021/09/21 11:05:00;;;;;;;;;;;25.90;95.10;;;;;;5069197;28;19955;-66
2021/09/21 11:07:26;;;;;;;;;;;26.30;96.40;;;;;;5069995;28;20357;-66
2021/09/21 11:09:55;;;;;;;;;;;25.80;94.70;;;;;;5068703;28;19915;-66
2021/09/21 11:12:23;;;;;;;;;;;23.80;93.00;;;;;;5068910;28;20391;-66
2021/09/21 11:14:51;;;;;;;;;;;24.50;93.90;;;;;;5052074;28;19916;-65
2021/09/21 11:17:19;;;;;;;;;;;25.00;95.50;;;;;;5049400;28;19920;-64
2021/09/21 11:19:45;;;;;;;;;;;25.60;95.10;;;;;;5048746;28;19939;-65
2021/09/21 11:22:12;;;;;;;;;;;26.20;95.60;;;;;;5049088;28;20585;-65
2021/09/21 11:24:38;;;;;;;;;;;26.70;94.50;;;;;;5056022;28;19912;-65
2021/09/21 11:27:05;;;;;;;;;;;26.90;93.90;;;;;;5069620;28;19908;-67
2021/09/21 11:29:34;;;;;;;;;;;26.00;91.90;;;;;;5057767;28;19912;-66
2021/09/21 11:32:00;;;;;;;;;;;25.30;91.70;;;;;;5048817;28;19913;-65
2021/09/21 11:34:28;;;;;;;;;;;24.80;91.40;;;;;;5048283;28;19962;-65
2021/09/21 11:36:54;;;;;;;;;;;24.60;91.50;;;;;;5049947;28;19913;-64
2021/09/21 11:39:19;;;;;;;;;;;24.40;91.70;;;;;;5047720;28;19970;-64
2021/09/21 11:41:52;;;;;;;;;;;24.20;92.30;;;;;;5049130;28;19909;-65
2021/09/21 11:44:17;;;;;;;;;;;24.00;92.80;;;;;;5048883;28;19920;-65
2021/09/21 11:46:43;;;;;;;;;;;23.60;92.20;;;;;;5048849;28;19908;-65
2021/09/21 11:49:09;;;;;;;;;;;23.60;93.40;;;;;;5048139;28;19913;-65
2021/09/21 11:51:35;;;;;;;;;;;23.60;93.60;;;;;;5049249;28;19909;-65
2021/09/21 11:54:00;;;;;;;;;;;23.40;93.50;;;;;;5047618;28;20364;-64
2021/09/21 11:56:26;;;;;;;;;;;23.00;93.70;;;;;;5048499;28;20428;-64
2021/09/21 11:58:58;;;;;;;;;;;22.50;93.40;;;;;;5048269;28;19917;-64
2021/09/21 12:01:24;;;;;;;;;;;22.20;94.10;;;;;;5049163;28;19909;-65
2021/09/21 12:03:52;;;;;;;;;;;21.90;93.90;;;;;;5047497;28;20019;-64
2021/09/21 12:06:17;;;;;;;;;;;21.80;94.80;;;;;;5064030;28;19927;-65
2021/09/21 12:08:44;;;;;;;;;;;22.20;97.00;;;;;;5068209;28;20342;-65
2021/09/21 12:11:11;;;;;;;;;;;22.70;97.70;;;;;;5072862;28;19909;-64
2021/09/21 12:13:37;;;;;;;;;;;23.20;99.10;;;;;;5064223;28;19913;-64
2021/09/21 12:16:04;;;;;;;;;;;23.30;98.90;;;;;;5052869;28;20449;-65
2021/09/21 12:18:32;;;;;;;;;;;22.90;98.30;;;;;;5052230;28;19913;-65
2021/09/21 12:20:58;;;;;;;;;;;22.80;98.20;;;;;;5052493;28;19992;-65
2021/09/21 12:23:25;;;;;;;;;;;22.40;97.80;;;;;;5051124;28;20016;-65
2021/09/21 12:25:52;;;;;;;;;;;22.40;98.90;;;;;;5070154;28;20329;-66
2021/09/21 12:28:24;;;;;;;;;;;22.40;99.30;;;;;;5072543;28;19970;-65
2021/09/21 12:30:50;;;;;;;;;;;22.40;99.70;;;;;;5072674;28;20380;-66
2021/09/21 12:33:15;;;;;;;;;;;22.20;99.90;;;;;;5071102;28;19908;-65
2021/09/21 12:35:46;;;;;;;;;;;22.10;99.90;;;;;;5072518;28;19913;-64
2021/09/21 12:38:14;;;;;;;;;;;22.00;99.90;;;;;;5071639;28;19912;-65
2021/09/21 12:40:50;;;;;;;;;;;21.70;99.90;;;;;;5070904;28;19909;-64
2021/09/21 12:43:17;;;;;;;;;;;21.40;99.90;;;;;;5071411;28;19908;-64
2021/09/21 12:45:43;;;;;;;;;;;21.20;99.90;;;;;;5072293;28;19986;-65
2021/09/21 12:48:09;;;;;;;;;;;21.20;99.90;;;;;;5072174;28;19912;-64
2021/09/21 12:50:38;;;;;;;;;;;21.20;99.90;;;;;;5072234;28;19954;-65
2021/09/21 12:53:03;;;;;;;;;;;21.30;99.90;;;;;;5070663;28;19909;-64
2021/09/21 12:55:33;;;;;;;;;;;21.40;99.90;;;;;;5071404;28;19916;-65
2021/09/21 12:57:59;;;;;;;;;;;21.30;99.90;;;;;;5072410;28;19920;-65
2021/09/21 13:00:31;;;;;;;;;;;21.20;99.90;;;;;;5072224;28;19908;-66
2021/09/21 13:02:57;;;;;;;;;;;21.20;99.90;;;;;;5070830;28;20006;-64
2021/09/21 13:05:22;;;;;;;;;;;21.10;99.90;;;;;;5063654;28;20000;-64
2021/09/21 13:07:48;;;;;;;;;;;21.10;99.90;;;;;;5051855;28;20648;-64
2021/09/21 13:10:13;;;;;;;;;;;21.40;99.90;;;;;;5050240;28;19909;-64
2021/09/21 13:12:39;;;;;;;;;;;21.60;99.90;;;;;;5051108;28;19912;-66
2021/09/21 13:15:05;;;;;;;;;;;21.70;99.90;;;;;;5070636;28;20001;-66
2021/09/21 13:17:30;;;;;;;;;;;21.70;99.90;;;;;;5072040;28;19959;-66
2021/09/21 13:19:56;;;;;;;;;;;21.70;99.90;;;;;;5070714;28;19923;-66
2021/09/21 13:22:21;;;;;;;;;;;21.80;99.90;;;;;;5071041;28;19996;-65
2021/09/21 13:24:47;;;;;;;;;;;22.10;99.90;;;;;;5069913;28;19909;-66
2021/09/21 13:27:12;;;;;;;;;;;22.10;99.90;;;;;;5071629;28;20258;-66
2021/09/21 13:29:38;;;;;;;;;;;22.00;99.90;;;;;;5070890;28;19959;-65
2021/09/21 13:32:04;;;;;;;;;;;22.00;99.90;;;;;;5071519;28;19913;-65
2021/09/21 13:34:29;;;;;;;;;;;21.80;99.90;;;;;;5070442;28;19982;-66
2021/09/21 13:36:55;;;;;;;;;;;21.60;99.90;;;;;;5071365;28;20019;-66
2021/09/21 13:39:20;;;;;;;;;;;21.60;99.90;;;;;;5069701;28;20376;-65
2021/09/21 13:41:46;;;;;;;;;;;21.60;99.90;;;;;;5071287;28;20121;-66
2021/09/21 13:44:11;;;;;;;;;;;21.40;99.90;;;;;;5070657;28;19909;-66
2021/09/21 13:46:37;;;;;;;;;;;21.10;99.90;;;;;;5071675;28;19912;-65
2021/09/21 13:49:02;;;;;;;;;;;21.10;99.90;;;;;;5070654;28;20293;-66
2021/09/21 13:51:28;;;;;;;;;;;21.00;99.90;;;;;;5070886;28;19908;-65
2021/09/21 13:53:53;;;;;;;;;;;20.80;99.90;;;;;;5069242;28;19909;-65
2021/09/21 13:56:19;;;;;;;;;;;20.20;99.90;;;;;;5071206;28;19989;-65
2021/09/21 13:58:44;;;;;;;;;;;20.10;99.90;;;;;;5070907;28;20294;-66
2021/09/21 14:01:10;;;;;;;;;;;20.00;99.90;;;;;;5070748;28;20333;-65
2021/09/21 14:03:37;;;;;;;;;;;20.10;99.90;;;;;;5069167;28;19923;-65
2021/09/21 14:06:02;;;;;;;;;;;20.10;99.90;;;;;;5070203;28;19924;-65
2021/09/21 14:08:28;;;;;;;;;;;20.10;99.90;;;;;;5070107;28;19912;-65
2021/09/21 14:10:54;;;;;;;;;;;19.90;99.90;;;;;;5070279;28;19909;-66
2021/09/21 14:13:19;;;;;;;;;;;19.70;99.90;;;;;;5063974;28;19913;-65
2021/09/21 14:15:45;;;;;;;;;;;19.60;99.90;;;;;;5050310;28;19913;-64
2021/09/21 14:18:12;;;;;;;;;;;19.50;99.90;;;;;;5050049;28;20451;-66
2021/09/21 14:20:37;;;;;;;;;;;19.40;99.90;;;;;;5050270;28;20271;-64
2021/09/21 14:23:03;;;;;;;;;;;19.40;99.90;;;;;;5049373;28;19992;-64
2021/09/21 14:25:29;;;;;;;;;;;19.40;99.90;;;;;;5064287;28;19917;-65
2021/09/21 14:27:55;;;;;;;;;;;19.40;99.90;;;;;;5070100;28;19930;-65